createdAt,value
2023-02-11T00:00:55.191Z,78.04
2023-02-11T00:03:21.701Z,78.58
2023-02-11T00:05:58.307Z,77.72
2023-02-11T00:08:24.942Z,76.85
2023-02-11T00:10:55.838Z,76.89
2023-02-11T00:13:23.408Z,77.34
2023-02-11T00:15:50.409Z,78.37
2023-02-11T00:18:17.072Z,77.34
2023-02-11T00:20:44.186Z,76.80
2023-02-11T00:23:10.715Z,78.61
2023-02-11T00:25:45.336Z,78.33
2023-02-11T00:28:12.569Z,77.05
2023-02-11T00:30:39.236Z,77.96
2023-02-11T00:33:05.812Z,78.29
2023-02-11T00:35:32.400Z,78.52
2023-02-11T00:37:58.975Z,78.15
2023-02-11T00:40:25.493Z,80.99
2023-02-11T00:42:52.000Z,80.70
2023-02-11T00:45:20.943Z,80.57
2023-02-11T00:47:47.860Z,79.72
2023-02-11T00:50:14.427Z,78.84
2023-02-11T00:52:40.913Z,78.54
2023-02-11T00:55:07.797Z,78.20
2023-02-11T00:57:34.498Z,78.21
2023-02-11T01:00:01.048Z,78.22
2023-02-11T01:02:27.652Z,77.66
2023-02-11T01:04:54.326Z,77.97
2023-02-11T01:07:20.956Z,79.22
2023-02-11T01:09:47.448Z,78.54
2023-02-11T01:12:13.989Z,77.15
2023-02-11T01:14:40.597Z,78.48
2023-02-11T01:17:07.249Z,77.96
2023-02-11T01:19:33.779Z,78.30
2023-02-11T01:22:00.334Z,78.47
2023-02-11T01:24:27.000Z,77.72
2023-02-11T01:26:53.540Z,77.65
2023-02-11T01:29:20.054Z,77.46
2023-02-11T01:31:46.918Z,78.26
2023-02-11T01:34:13.553Z,77.59
2023-02-11T01:36:40.354Z,76.10
2023-02-11T01:39:08.559Z,75.27
2023-02-11T01:41:35.890Z,76.25
2023-02-11T01:44:37.963Z,76.01
2023-02-11T01:47:06.586Z,75.62
2023-02-11T01:49:38.498Z,74.60
2023-02-11T01:52:19.121Z,75.76
2023-02-11T01:55:21.705Z,74.70
2023-02-11T01:57:53.700Z,74.35
2023-02-11T02:00:25.324Z,74.59
2023-02-11T02:03:15.909Z,75.16
2023-02-11T02:05:55.595Z,74.71
2023-02-11T02:08:43.876Z,75.51
2023-02-11T02:11:11.102Z,75.30
2023-02-11T02:13:37.940Z,75.31
2023-02-11T02:16:12.467Z,75.08
2023-02-11T02:19:00.157Z,75.07
2023-02-11T02:22:03.534Z,75.00
2023-02-11T02:24:49.406Z,74.49
2023-02-11T02:27:37.695Z,73.87
2023-02-11T02:30:42.010Z,74.50
2023-02-11T02:33:22.475Z,74.47
2023-02-11T02:36:05.731Z,74.49
2023-02-11T02:38:57.778Z,73.70
2023-02-11T02:41:30.557Z,73.41
2023-02-11T02:43:57.372Z,73.57
2023-02-11T02:46:33.203Z,73.33
2023-02-11T02:49:00.173Z,73.31
2023-02-11T02:51:48.585Z,73.72
2023-02-11T02:54:39.401Z,73.21
2023-02-11T02:57:39.756Z,73.65
2023-02-11T03:00:37.536Z,73.09
2023-02-11T03:03:49.219Z,72.57
2023-02-11T03:06:28.836Z,72.34
2023-02-11T03:09:05.376Z,71.97
2023-02-11T03:11:34.072Z,72.04
2023-02-11T03:14:03.337Z,72.38
2023-02-11T03:16:30.907Z,71.91
2023-02-11T03:19:06.070Z,71.17
2023-02-11T03:21:36.112Z,71.15
2023-02-11T03:24:07.711Z,71.31
2023-02-11T03:26:57.702Z,70.72
2023-02-11T03:29:33.058Z,70.53
2023-02-11T03:32:09.045Z,71.05
2023-02-11T03:34:38.419Z,71.21
2023-02-11T03:37:27.095Z,70.96
2023-02-11T03:40:03.041Z,71.25
2023-02-11T03:42:35.958Z,72.10
2023-02-11T03:45:12.422Z,71.20
2023-02-11T03:47:43.641Z,71.36
2023-02-11T03:50:12.563Z,71.37
2023-02-11T03:52:39.372Z,73.23
2023-02-11T03:55:17.148Z,74.46
2023-02-11T03:57:43.738Z,74.68
2023-02-11T04:00:11.631Z,74.72
2023-02-11T04:02:39.812Z,75.09
2023-02-11T04:05:08.382Z,74.99
2023-02-11T04:07:35.050Z,73.66
2023-02-11T04:10:01.844Z,73.68
2023-02-11T04:12:28.338Z,73.19
2023-02-11T04:14:54.853Z,72.95
2023-02-11T04:17:21.392Z,73.13
2023-02-11T04:19:47.858Z,72.83
2023-02-11T04:22:14.418Z,73.52
2023-02-11T04:24:41.099Z,73.78
2023-02-11T04:27:07.615Z,74.35
2023-02-11T04:29:34.311Z,74.66
2023-02-11T04:32:01.034Z,74.62
2023-02-11T04:34:27.586Z,74.05
2023-02-11T04:36:54.141Z,74.90
2023-02-11T04:39:20.793Z,75.05
2023-02-11T04:41:47.343Z,75.75
2023-02-11T04:44:13.860Z,75.33
2023-02-11T04:46:40.862Z,74.55
2023-02-11T04:49:07.471Z,74.82
2023-02-11T04:51:34.017Z,74.66
2023-02-11T04:54:00.544Z,75.01
2023-02-11T04:56:27.096Z,74.60
2023-02-11T04:58:53.613Z,74.15
2023-02-11T05:01:20.275Z,74.24
2023-02-11T05:03:46.900Z,73.93
2023-02-11T05:06:13.624Z,74.23
2023-02-11T05:08:40.785Z,74.72
2023-02-11T05:11:07.986Z,74.10
2023-02-11T05:13:34.785Z,74.21
2023-02-11T05:16:01.336Z,73.95
2023-02-11T05:18:27.909Z,73.73
2023-02-11T05:20:54.428Z,73.58
2023-02-11T05:23:20.957Z,73.19
2023-02-11T05:25:47.482Z,72.99
2023-02-11T05:28:14.044Z,73.05
2023-02-11T05:30:40.657Z,73.34
2023-02-11T05:33:07.290Z,73.87
2023-02-11T05:35:33.996Z,72.95
2023-02-11T05:38:00.521Z,72.59
2023-02-11T05:40:27.056Z,71.78
2023-02-11T05:42:53.556Z,72.40
2023-02-11T05:45:20.043Z,72.04
2023-02-11T05:47:46.547Z,71.95
2023-02-11T05:50:13.045Z,72.45
2023-02-11T05:52:39.552Z,73.00
2023-02-11T05:55:06.655Z,73.24
2023-02-11T05:57:34.128Z,73.30
2023-02-11T06:00:00.611Z,72.40
2023-02-11T06:02:27.143Z,72.84
2023-02-11T06:04:53.715Z,72.73
2023-02-11T06:07:20.381Z,73.02
2023-02-11T06:09:46.840Z,72.51
2023-02-11T06:12:13.411Z,72.92
2023-02-11T06:14:40.038Z,72.92
2023-02-11T06:17:06.726Z,73.55
2023-02-11T06:19:33.812Z,73.12
2023-02-11T06:22:00.319Z,73.61
2023-02-11T06:24:50.995Z,73.09
2023-02-11T06:27:13.366Z,72.82
2023-02-11T06:29:39.908Z,73.04
2023-02-11T06:32:06.580Z,73.04
2023-02-11T06:34:33.135Z,72.99
2023-02-11T06:36:59.655Z,73.72
2023-02-11T06:39:26.236Z,73.15
2023-02-11T06:41:52.753Z,73.41
2023-02-11T06:44:19.240Z,73.80
2023-02-11T06:46:45.812Z,74.27
2023-02-11T06:49:12.517Z,74.01
2023-02-11T06:51:39.259Z,74.47
2023-02-11T06:54:07.054Z,74.45
2023-02-11T06:56:34.316Z,73.85
2023-02-11T06:59:00.704Z,74.05
2023-02-11T07:01:28.189Z,73.90
2023-02-11T07:03:55.034Z,73.69
2023-02-11T07:06:24.871Z,72.65
2023-02-11T07:08:51.526Z,72.92
2023-02-11T07:11:24.759Z,73.06
2023-02-11T07:13:52.904Z,72.33
2023-02-11T07:16:20.522Z,73.16
2023-02-11T07:18:48.153Z,73.11
2023-02-11T07:21:19.453Z,72.72
2023-02-11T07:23:46.458Z,73.06
2023-02-11T07:26:16.362Z,73.79
2023-02-11T07:28:43.918Z,71.69
2023-02-11T07:31:15.160Z,71.81
2023-02-11T07:33:42.293Z,72.01
2023-02-11T07:36:10.804Z,72.12
2023-02-11T07:38:38.149Z,71.85
2023-02-11T07:41:07.490Z,75.63
2023-02-11T07:43:35.487Z,71.83
2023-02-11T07:46:07.299Z,71.72
2023-02-11T07:48:34.438Z,71.76
2023-02-11T07:51:14.671Z,71.83
2023-02-11T07:53:41.721Z,72.06
2023-02-11T16:30:45.636Z,63.35
2023-02-11T16:33:12.217Z,63.04
2023-02-11T16:35:38.816Z,62.92
2023-02-11T16:38:05.362Z,62.51
2023-02-11T16:40:32.084Z,61.82
2023-02-11T16:42:58.562Z,61.88
2023-02-11T16:45:25.052Z,61.83
2023-02-11T16:47:51.611Z,62.12
2023-02-11T16:50:23.848Z,61.61
2023-02-11T16:52:52.341Z,61.51
2023-02-11T16:55:21.995Z,62.48
2023-02-11T16:57:49.058Z,63.14
2023-02-11T17:00:16.766Z,64.73
2023-02-11T17:02:44.087Z,64.78
2023-02-11T17:05:23.041Z,64.56
2023-02-11T17:07:49.882Z,64.30
2023-02-11T17:10:19.193Z,64.55
2023-02-11T17:12:45.865Z,64.92
2023-02-11T17:15:12.462Z,64.75
2023-02-11T17:17:39.089Z,65.38
2023-02-11T17:20:07.067Z,65.95
2023-02-11T17:22:33.712Z,65.34
2023-02-11T17:25:00.297Z,65.18
2023-02-11T17:27:26.790Z,66.34
2023-02-11T17:29:53.341Z,66.26
2023-02-11T17:32:20.005Z,66.01
2023-02-11T17:34:46.532Z,66.09
2023-02-11T17:37:13.063Z,66.15
2023-02-11T17:39:40.300Z,66.27
2023-02-11T17:42:08.694Z,66.32
2023-02-11T17:44:35.756Z,65.29
2023-02-11T17:47:02.155Z,65.04
2023-02-11T17:49:28.727Z,65.14
2023-02-11T17:51:55.355Z,64.88
2023-02-11T17:54:21.876Z,65.67
2023-02-11T17:56:50.780Z,65.18
2023-02-11T17:59:17.764Z,66.01
2023-02-11T18:01:44.262Z,66.00
2023-02-11T18:04:14.858Z,66.41
2023-02-11T18:06:41.425Z,66.22
2023-02-11T18:09:08.127Z,66.23
2023-02-11T18:11:37.252Z,65.97
2023-02-11T18:14:05.123Z,66.61
2023-02-11T18:16:31.677Z,66.30
2023-02-11T18:18:58.648Z,66.58
2023-02-11T18:21:25.166Z,66.67
2023-02-11T18:23:51.870Z,66.81
2023-02-11T18:26:20.265Z,66.39
2023-02-11T18:28:46.976Z,67.26
2023-02-11T18:31:14.388Z,67.10
2023-02-11T18:33:42.511Z,66.72
2023-02-11T18:36:14.738Z,67.59
2023-02-11T18:38:44.244Z,67.19
2023-02-11T18:41:11.522Z,67.14
2023-02-11T18:43:38.067Z,67.43
2023-02-11T18:46:10.104Z,68.17
2023-02-11T18:48:37.462Z,68.44
2023-02-11T18:51:09.874Z,68.07
2023-02-11T18:53:36.588Z,67.89
2023-02-11T18:56:08.096Z,68.43
2023-02-11T18:58:34.643Z,68.28
2023-02-11T19:01:01.266Z,68.55
2023-02-11T19:03:27.837Z,68.49
2023-02-11T19:05:54.688Z,68.39
2023-02-11T19:08:21.309Z,68.71
2023-02-11T19:10:49.407Z,69.22
2023-02-11T19:13:15.985Z,69.58
2023-02-11T19:15:46.862Z,69.80
2023-02-11T19:18:15.168Z,70.27
2023-02-11T19:20:43.153Z,70.11
2023-02-11T19:23:10.967Z,70.28
2023-02-11T19:25:37.886Z,70.38
2023-02-11T19:28:04.552Z,69.79
2023-02-11T19:30:31.167Z,70.29
2023-02-11T19:32:57.904Z,70.32
2023-02-11T19:35:25.544Z,70.68
2023-02-11T19:37:52.313Z,70.96
2023-02-11T19:40:21.250Z,71.62
2023-02-11T19:42:48.223Z,71.25
2023-02-11T19:45:14.832Z,71.54
2023-02-11T19:47:41.387Z,71.42
2023-02-11T19:50:08.828Z,71.72
2023-02-11T19:52:38.405Z,71.44
2023-02-11T19:55:05.480Z,71.13
2023-02-11T19:57:32.062Z,71.24
2023-02-11T19:59:58.832Z,71.44
2023-02-11T20:02:25.387Z,71.39
2023-02-11T20:04:51.922Z,70.69
2023-02-11T20:07:18.485Z,71.03
2023-02-11T20:09:45.027Z,70.97
2023-02-11T20:12:12.152Z,71.43
2023-02-11T20:14:38.897Z,71.56
2023-02-11T20:17:05.449Z,71.15
2023-02-11T20:19:32.095Z,70.94
2023-02-11T20:21:58.663Z,71.47
2023-02-11T20:24:25.483Z,71.55
2023-02-11T20:26:56.134Z,71.48
2023-02-11T20:29:23.780Z,71.35
2023-02-11T20:31:50.959Z,71.56
2023-02-11T20:34:18.373Z,71.82
2023-02-11T20:36:51.800Z,71.13
2023-02-11T20:39:21.743Z,70.72
2023-02-11T20:41:49.117Z,71.61
2023-02-11T20:44:15.735Z,71.30
2023-02-11T20:46:48.082Z,71.44
2023-02-11T20:49:18.945Z,71.92
2023-02-11T20:51:45.940Z,71.44
2023-02-11T20:54:18.292Z,71.82
2023-02-11T20:56:48.074Z,72.44
2023-02-11T20:59:16.730Z,72.50
2023-02-11T21:01:46.437Z,72.14
2023-02-11T21:04:35.456Z,72.21
2023-02-11T21:07:02.346Z,72.55
2023-02-11T21:09:32.145Z,72.38
2023-02-11T21:11:59.479Z,72.19
2023-02-11T21:14:28.441Z,72.34
2023-02-11T21:16:55.176Z,72.68
2023-02-11T21:19:21.819Z,72.71
2023-02-11T21:21:49.236Z,72.08
2023-02-11T21:24:15.871Z,72.82
2023-02-11T21:26:42.683Z,72.63
2023-02-11T21:29:09.779Z,72.70
2023-02-11T21:31:37.493Z,72.54
2023-02-11T21:34:05.411Z,72.82
2023-02-11T21:36:32.093Z,72.38
2023-02-11T21:39:00.169Z,73.28
2023-02-11T21:41:27.470Z,73.78
2023-02-11T21:43:54.393Z,73.84
2023-02-11T21:46:22.547Z,73.54
2023-02-11T21:48:49.570Z,73.35
2023-02-11T21:51:17.450Z,73.60
2023-02-11T21:53:44.431Z,73.24
2023-02-11T21:56:18.112Z,73.68
2023-02-11T21:58:45.876Z,73.25
2023-02-11T22:01:19.464Z,73.36
2023-02-11T22:03:47.828Z,72.80
2023-02-11T22:06:21.467Z,72.97
2023-02-11T22:08:50.029Z,73.03
2023-02-11T22:11:16.624Z,72.83
2023-02-11T22:13:43.243Z,72.94
2023-02-11T22:16:13.830Z,73.57
2023-02-11T22:18:40.760Z,73.40
2023-02-11T22:21:15.018Z,73.53
2023-02-11T22:23:41.687Z,73.52
2023-02-11T22:26:14.953Z,73.94
2023-02-11T22:28:41.680Z,74.21
2023-02-11T22:31:14.405Z,74.16
2023-02-11T22:33:41.356Z,73.51
2023-02-11T22:36:13.866Z,73.44
2023-02-11T22:38:40.412Z,73.18
2023-02-11T22:41:09.708Z,73.41
2023-02-11T22:43:37.431Z,73.35
2023-02-11T22:46:06.630Z,73.59
2023-02-11T22:48:34.720Z,73.78
2023-02-11T22:51:24.688Z,73.57
2023-02-11T22:53:54.274Z,73.28
2023-02-11T22:56:21.602Z,73.25
2023-02-11T22:58:49.054Z,73.79
2023-02-11T23:01:15.942Z,73.79
2023-02-11T23:03:42.856Z,73.73
2023-02-11T23:06:10.355Z,73.67
2023-02-11T23:08:39.271Z,73.95
2023-02-11T23:11:21.029Z,73.54
2023-02-11T23:13:48.719Z,74.22
2023-02-11T23:16:18.744Z,73.52
2023-02-11T23:18:46.991Z,73.42
2023-02-11T23:21:21.134Z,73.12
2023-02-11T23:23:48.632Z,73.32
2023-02-11T23:26:17.814Z,73.75
2023-02-11T23:28:46.106Z,73.43
2023-02-11T23:31:21.565Z,73.45
2023-02-11T23:33:49.635Z,73.76
2023-02-11T23:36:16.807Z,73.83
2023-02-11T23:38:43.757Z,73.99
2023-02-11T23:41:10.251Z,73.88
2023-02-11T23:43:36.975Z,74.01
2023-02-11T23:46:04.272Z,73.92
2023-02-11T23:48:30.952Z,74.47
2023-02-11T23:50:57.493Z,73.57
2023-02-11T23:53:24.042Z,73.72
2023-02-11T23:55:50.651Z,73.82
2023-02-11T23:58:17.244Z,73.69
